Time;durP1;ratioP1;P1;durP2;ratioP2;P2;SDS_P1;SDS_P2;PMS_P1;PMS_P2;Temp;Humidity;BMP_temperature;BMP_pressure;BME280_temperature;BME280_humidity;BME280_pressure;Samples;Min_cycle;Max_cycle;Signal;HPM_P1;HPM_P2
2023/06/12 00:01:36;;;;;;;0.20;0.20;;;;;;;;;;5092877;28;20310;-46
2023/06/12 00:04:02;;;;;;;0.47;0.28;;;;;;;;;;5093980;28;20745;-46
2023/06/12 00:06:28;;;;;;;0.10;0.10;;;;;;;;;;5089227;28;20592;-45
2023/06/12 00:08:53;;;;;;;0.13;0.13;;;;;;;;;;5085010;28;20083;-45
2023/06/12 00:11:20;;;;;;;0.20;0.20;;;;;;;;;;5074968;28;20104;-48
2023/06/12 00:13:46;;;;;;;0.20;0.20;;;;;;;;;;5093468;28;20044;-45
2023/06/12 00:16:12;;;;;;;0.20;0.20;;;;;;;;;;5075023;28;20834;-46
2023/06/12 00:18:39;;;;;;;0.20;0.20;;;;;;;;;;5095962;28;20553;-46
2023/06/12 00:21:05;;;;;;;0.20;0.20;;;;;;;;;;5096916;28;20044;-45
2023/06/12 00:23:31;;;;;;;0.10;0.10;;;;;;;;;;5096700;28;20404;-45
2023/06/12 00:25:56;;;;;;;0.20;0.20;;;;;;;;;;5097074;28;20055;-46
2023/06/12 00:28:22;;;;;;;0.10;0.10;;;;;;;;;;5096890;28;20100;-45
2023/06/12 00:30:48;;;;;;;0.20;0.20;;;;;;;;;;5096760;28;20047;-46
2023/06/12 00:33:13;;;;;;;0.20;0.20;;;;;;;;;;5097550;28;20052;-45
2023/06/12 00:35:39;;;;;;;0.20;0.20;;;;;;;;;;5097182;28;20054;-45
2023/06/12 00:38:06;;;;;;;0.20;0.20;;;;;;;;;;5096612;28;20427;-46
2023/06/12 00:40:31;;;;;;;0.20;0.20;;;;;;;;;;5095827;28;20082;-45
2023/06/12 00:42:57;;;;;;;0.20;0.20;;;;;;;;;;5096546;28;20055;-45
2023/06/12 00:45:23;;;;;;;0.20;0.20;;;;;;;;;;5082484;28;20100;-45
2023/06/12 00:47:52;;;;;;;0.10;0.10;;;;;;;;;;5116596;28;20047;-45
2023/06/12 00:50:18;;;;;;;0.20;0.20;;;;;;;;;;5080812;28;20044;-45
2023/06/12 00:52:45;;;;;;;0.20;0.20;;;;;;;;;;5078395;28;20051;-45
2023/06/12 00:55:11;;;;;;;0.20;0.20;;;;;;;;;;5078418;28;20453;-45
2023/06/12 00:57:38;;;;;;;0.20;0.20;;;;;;;;;;5078331;28;20150;-45
2023/06/12 01:00:07;;;;;;;0.20;0.20;;;;;;;;;;5095421;28;20504;-48
2023/06/12 01:02:34;;;;;;;0.20;0.20;;;;;;;;;;5096472;28;20415;-45
2023/06/12 01:04:59;;;;;;;0.20;0.20;;;;;;;;;;5097003;28;20099;-45
2023/06/12 01:07:38;;;;;;;0.20;0.20;;;;;;;;;;5104348;27;20487;-45
2023/06/12 01:10:10;;;;;;;0.20;0.20;;;;;;;;;;5095882;28;20587;-46
2023/06/12 01:12:36;;;;;;;0.17;0.17;;;;;;;;;;5096492;28;20518;-45
2023/06/12 01:15:02;;;;;;;0.20;0.20;;;;;;;;;;5095913;28;20482;-45
2023/06/12 01:17:29;;;;;;;0.10;0.10;;;;;;;;;;5096946;28;20055;-44
2023/06/12 01:19:56;;;;;;;0.20;0.20;;;;;;;;;;5095702;28;20056;-45
2023/06/12 01:22:23;;;;;;;0.10;0.10;;;;;;;;;;5096385;28;20040;-45
2023/06/12 01:25:10;;;;;;;0.20;0.20;;;;;;;;;;5096291;28;20052;-46
2023/06/12 01:27:47;;;;;;;0.20;0.20;;;;;;;;;;5081281;28;20079;-46
2023/06/12 01:30:26;;;;;;;0.10;0.10;;;;;;;;;;5104824;28;20459;-46
2023/06/12 01:32:52;;;;;;;0.20;0.20;;;;;;;;;;5096330;28;20047;-45
2023/06/12 01:35:23;;;;;;;0.20;0.20;;;;;;;;;;5096137;28;20477;-45
2023/06/12 01:37:53;;;;;;;0.20;0.20;;;;;;;;;;5096132;28;20077;-45
2023/06/12 01:40:19;;;;;;;0.20;0.20;;;;;;;;;;5077024;28;20393;-44
2023/06/12 01:42:45;;;;;;;0.20;0.20;;;;;;;;;;5095676;28;20047;-45
2023/06/12 01:45:10;;;;;;;0.10;0.10;;;;;;;;;;5077197;28;20048;-45
2023/06/12 01:47:36;;;;;;;0.13;0.13;;;;;;;;;;5099603;28;20059;-48
2023/06/12 01:50:03;;;;;;;0.20;0.20;;;;;;;;;;5095034;28;20036;-46
2023/06/12 01:52:29;;;;;;;0.10;0.10;;;;;;;;;;5096087;28;20059;-46
2023/06/12 01:54:58;;;;;;;0.15;0.15;;;;;;;;;;5095715;28;20039;-46
2023/06/12 01:57:23;;;;;;;;;;;;;;;;;;5096097;28;20472;-45
2023/06/12 01:59:49;;;;;;;0.20;0.20;;;;;;;;;;5095394;28;20768;-45
2023/06/12 02:02:16;;;;;;;0.17;0.17;;;;;;;;;;5096140;28;20096;-45
2023/06/12 02:04:41;;;;;;;0.20;0.20;;;;;;;;;;5095723;28;20058;-44
2023/06/12 02:07:07;;;;;;;0.20;0.20;;;;;;;;;;5101804;28;20050;-45
2023/06/12 02:09:33;;;;;;;0.20;0.20;;;;;;;;;;5107861;28;20050;-45
2023/06/12 02:12:00;;;;;;;0.20;0.20;;;;;;;;;;5077377;28;20083;-45
2023/06/12 02:14:26;;;;;;;0.20;0.20;;;;;;;;;;5095324;28;20549;-47
2023/06/12 02:16:54;;;;;;;0.10;0.10;;;;;;;;;;5095648;28;20138;-45
2023/06/12 02:19:22;;;;;;;0.20;0.20;;;;;;;;;;5095350;28;20681;-47
2023/06/12 02:21:49;;;;;;;0.10;0.10;;;;;;;;;;5094846;28;20237;-46
2023/06/12 02:24:15;;;;;;;0.20;0.20;;;;;;;;;;5095094;28;20513;-45
2023/06/12 02:26:41;;;;;;;0.20;0.20;;;;;;;;;;5095468;28;20552;-45
2023/06/12 02:29:07;;;;;;;0.20;0.20;;;;;;;;;;5095110;28;20093;-46
2023/06/12 02:31:33;;;;;;;0.10;0.10;;;;;;;;;;5092545;28;20263;-46
2023/06/12 02:33:58;;;;;;;0.20;0.20;;;;;;;;;;5115209;28;20086;-44
2023/06/12 02:36:24;;;;;;;0.20;0.20;;;;;;;;;;5115862;28;20099;-45
2023/06/12 02:38:50;;;;;;;0.17;0.17;;;;;;;;;;5109077;28;20476;-46
2023/06/12 02:41:15;;;;;;;0.20;0.20;;;;;;;;;;5094837;28;20043;-45
2023/06/12 02:43:41;;;;;;;0.20;0.20;;;;;;;;;;5094967;28;20100;-45
2023/06/12 02:46:06;;;;;;;0.20;0.20;;;;;;;;;;5095092;28;20058;-45
2023/06/12 02:48:32;;;;;;;0.20;0.20;;;;;;;;;;5094929;28;20138;-45
2023/06/12 02:50:57;;;;;;;0.20;0.20;;;;;;;;;;5094884;28;20051;-47
2023/06/12 02:53:23;;;;;;;0.20;0.20;;;;;;;;;;5094669;28;20071;-45
2023/06/12 02:55:49;;;;;;;0.20;0.20;;;;;;;;;;5094807;28;20047;-45
2023/06/12 02:58:15;;;;;;;0.20;0.20;;;;;;;;;;5094667;28;20044;-45
2023/06/12 03:00:41;;;;;;;0.15;0.15;;;;;;;;;;5094783;28;20050;-45
2023/06/12 03:03:07;;;;;;;0.20;0.20;;;;;;;;;;5094860;28;20487;-45
2023/06/12 03:05:34;;;;;;;0.20;0.20;;;;;;;;;;5094438;28;20472;-47
2023/06/12 03:08:02;;;;;;;0.20;0.20;;;;;;;;;;5103927;28;20415;-45
2023/06/12 03:10:28;;;;;;;0.20;0.20;;;;;;;;;;5100472;28;20059;-45
2023/06/12 03:12:54;;;;;;;0.20;0.20;;;;;;;;;;5094269;28;20048;-45
2023/06/12 03:15:19;;;;;;;0.20;0.20;;;;;;;;;;5093969;28;20761;-46
2023/06/12 03:17:45;;;;;;;0.20;0.20;;;;;;;;;;5094153;28;20055;-46
2023/06/12 03:20:11;;;;;;;0.20;0.20;;;;;;;;;;5093670;28;20051;-45
2023/06/12 03:22:37;;;;;;;0.20;0.20;;;;;;;;;;5093990;28;20044;-47
2023/06/12 03:25:03;;;;;;;0.20;0.20;;;;;;;;;;5094133;28;20059;-45
2023/06/12 03:27:29;;;;;;;0.20;0.20;;;;;;;;;;5093882;28;20377;-46
2023/06/12 03:29:55;;;;;;;0.20;0.20;;;;;;;;;;5093448;28;20039;-45
2023/06/12 03:32:20;;;;;;;0.20;0.20;;;;;;;;;;5094652;28;20079;-45
2023/06/12 03:34:47;;;;;;;0.20;0.20;;;;;;;;;;5093870;28;20480;-45
2023/06/12 03:37:12;;;;;;;0.20;0.20;;;;;;;;;;5093706;28;20537;-45
2023/06/12 03:39:38;;;;;;;0.20;0.20;;;;;;;;;;5092860;28;20085;-45
2023/06/12 03:42:04;;;;;;;0.20;0.20;;;;;;;;;;5094164;28;20092;-45
2023/06/12 03:44:30;;;;;;;0.20;0.20;;;;;;;;;;5093523;28;20134;-46
2023/06/12 03:46:55;;;;;;;0.20;0.20;;;;;;;;;;5094068;28;20048;-46
2023/06/12 03:49:21;;;;;;;0.20;0.20;;;;;;;;;;5093491;28;20499;-46
2023/06/12 03:51:47;;;;;;;0.20;0.20;;;;;;;;;;5103122;27;20047;-45
2023/06/12 03:54:12;;;;;;;0.10;0.10;;;;;;;;;;5114316;28;20110;-46
2023/06/12 03:56:38;;;;;;;0.38;0.38;;;;;;;;;;5114241;28;20275;-45
2023/06/12 03:59:03;;;;;;;0.20;0.20;;;;;;;;;;5113127;28;20062;-46
2023/06/12 04:01:29;;;;;;;0.20;0.20;;;;;;;;;;5075239;28;20237;-47
2023/06/12 04:03:55;;;;;;;0.20;0.20;;;;;;;;;;5094279;28;20557;-44
2023/06/12 04:06:22;;;;;;;0.10;0.10;;;;;;;;;;5093881;28;20100;-46
2023/06/12 04:08:48;;;;;;;0.20;0.20;;;;;;;;;;5110322;28;20039;-46
2023/06/12 04:11:14;;;;;;;0.20;0.20;;;;;;;;;;5076558;28;20056;-46
2023/06/12 04:13:39;;;;;;;0.20;0.20;;;;;;;;;;5093694;28;20180;-46
2023/06/12 04:16:05;;;;;;;0.20;0.20;;;;;;;;;;5075264;28;20048;-46
2023/06/12 04:18:30;;;;;;;0.20;0.20;;;;;;;;;;5093490;28;20048;-45
2023/06/12 04:20:57;;;;;;;0.10;0.10;;;;;;;;;;5093283;28;20048;-46
2023/06/12 04:23:29;;;;;;;0.13;0.13;;;;;;;;;;5093979;28;20059;-46
2023/06/12 04:26:01;;;;;;;0.20;0.20;;;;;;;;;;5093420;28;20039;-45
2023/06/12 04:28:28;;;;;;;0.10;0.10;;;;;;;;;;5092596;28;20073;-45
2023/06/12 04:30:54;;;;;;;0.20;0.20;;;;;;;;;;5092797;28;20055;-45
2023/06/12 04:33:20;;;;;;;0.20;0.20;;;;;;;;;;5093892;28;20464;-45
2023/06/12 04:35:46;;;;;;;0.20;0.20;;;;;;;;;;5093619;28;20048;-45
2023/06/12 04:38:12;;;;;;;0.20;0.20;;;;;;;;;;5092369;28;20035;-44
2023/06/12 04:40:37;;;;;;;0.20;0.20;;;;;;;;;;5092406;28;20040;-45
2023/06/12 04:43:05;;;;;;;0.10;0.10;;;;;;;;;;5092885;28;20085;-45
2023/06/12 04:45:32;;;;;;;0.20;0.20;;;;;;;;;;5075113;28;20051;-45
2023/06/12 04:47:57;;;;;;;0.20;0.20;;;;;;;;;;5090868;28;20418;-47
2023/06/12 04:50:25;;;;;;;0.20;0.20;;;;;;;;;;5092703;28;20203;-46
2023/06/12 04:52:52;;;;;;;0.10;0.10;;;;;;;;;;5094868;28;20051;-45
2023/06/12 04:55:22;;;;;;;0.10;0.10;;;;;;;;;;5089641;28;20040;-47
2023/06/12 04:57:52;;;;;;;0.20;0.20;;;;;;;;;;5086234;28;20292;-48
2023/06/12 05:00:18;;;;;;;0.20;0.20;;;;;;;;;;5090948;28;20086;-46
2023/06/12 05:02:46;;;;;;;0.10;0.10;;;;;;;;;;5081117;28;20051;-47
2023/06/12 05:05:11;;;;;;;0.20;0.20;;;;;;;;;;5075700;28;20044;-54
2023/06/12 05:07:37;;;;;;;0.20;0.20;;;;;;;;;;5078544;28;20100;-47
2023/06/12 05:10:03;;;;;;;0.17;0.17;;;;;;;;;;5083605;28;20460;-50
2023/06/12 05:12:29;;;;;;;0.20;0.20;;;;;;;;;;5078337;28;20424;-48
2023/06/12 05:14:55;;;;;;;0.20;0.20;;;;;;;;;;5086667;28;20546;-49
2023/06/12 05:17:20;;;;;;;0.20;0.20;;;;;;;;;;5081360;28;20496;-49
2023/06/12 05:19:46;;;;;;;0.20;0.20;;;;;;;;;;5079198;28;20462;-47
2023/06/12 05:22:11;;;;;;;0.13;0.13;;;;;;;;;;5077961;28;20399;-48
2023/06/12 05:24:37;;;;;;;0.20;0.20;;;;;;;;;;5093271;28;20046;-49
2023/06/12 05:27:03;;;;;;;0.20;0.20;;;;;;;;;;5090793;28;20472;-47
2023/06/12 05:29:28;;;;;;;0.20;0.20;;;;;;;;;;5076907;28;20047;-49
2023/06/12 05:31:54;;;;;;;0.13;0.13;;;;;;;;;;5083646;28;20035;-48
2023/06/12 05:34:19;;;;;;;0.10;0.10;;;;;;;;;;5086268;28;20047;-47
2023/06/12 05:36:45;;;;;;;0.22;0.22;;;;;;;;;;5090849;28;20508;-50
2023/06/12 05:39:10;;;;;;;0.10;0.10;;;;;;;;;;5086085;28;20100;-49
2023/06/12 05:41:40;;;;;;;0.10;0.10;;;;;;;;;;5083321;28;20039;-49
2023/06/12 05:44:06;;;;;;;0.20;0.20;;;;;;;;;;5090562;28;20105;-52
2023/06/12 05:46:32;;;;;;;0.20;0.20;;;;;;;;;;5069657;28;20059;-48
2023/06/12 05:48:58;;;;;;;0.30;0.30;;;;;;;;;;5067471;28;20062;-49
2023/06/12 05:51:24;;;;;;;0.20;0.20;;;;;;;;;;5079325;28;20055;-48
2023/06/12 05:53:50;;;;;;;0.20;0.20;;;;;;;;;;5076067;28;20064;-48
2023/06/12 05:56:17;;;;;;;0.20;0.20;;;;;;;;;;5077280;28;20485;-47
2023/06/12 05:58:43;;;;;;;0.20;0.20;;;;;;;;;;5077173;28;20060;-48
2023/06/12 06:01:11;;;;;;;0.20;0.20;;;;;;;;;;5072297;28;20572;-47
2023/06/12 06:03:42;;;;;;;0.10;0.10;;;;;;;;;;5057562;28;20078;-47
2023/06/12 06:06:08;;;;;;;0.10;0.10;;;;;;;;;;5074742;28;20150;-48
2023/06/12 06:08:34;;;;;;;0.15;0.15;;;;;;;;;;5066490;28;20048;-47
2023/06/12 06:10:59;;;;;;;0.10;0.10;;;;;;;;;;5071304;28;20059;-48
2023/06/12 06:13:25;;;;;;;0.20;0.20;;;;;;;;;;5071884;28;20274;-48
2023/06/12 06:15:50;;;;;;;0.20;0.20;;;;;;;;;;5083544;28;20039;-47
2023/06/12 06:18:16;;;;;;;0.20;0.20;;;;;;;;;;5085244;28;20055;-49
2023/06/12 06:20:42;;;;;;;0.20;0.20;;;;;;;;;;5081111;28;20504;-47
2023/06/12 06:23:07;;;;;;;0.20;0.20;;;;;;;;;;5072893;28;20054;-47
2023/06/12 06:25:33;;;;;;;0.10;0.10;;;;;;;;;;5072025;28;20459;-47
2023/06/12 06:27:58;;;;;;;0.10;0.10;;;;;;;;;;5071792;28;20059;-49
2023/06/12 06:30:24;;;;;;;0.10;0.10;;;;;;;;;;5074860;28;20044;-50
2023/06/12 06:32:50;;;;;;;0.20;0.20;;;;;;;;;;5082774;28;20105;-48
2023/06/12 06:35:16;;;;;;;0.10;0.10;;;;;;;;;;5080072;28;20383;-47
2023/06/12 06:37:41;;;;;;;0.10;0.10;;;;;;;;;;5079262;28;20043;-48
2023/06/12 06:40:08;;;;;;;0.20;0.20;;;;;;;;;;5072999;28;20112;-49
2023/06/12 06:42:34;;;;;;;0.10;0.10;;;;;;;;;;5079389;28;20059;-49
2023/06/12 06:45:00;;;;;;;0.10;0.10;;;;;;;;;;5061319;28;20055;-47
2023/06/12 06:47:26;;;;;;;0.20;0.20;;;;;;;;;;5078912;28;20497;-47
2023/06/12 06:49:51;;;;;;;0.20;0.20;;;;;;;;;;5077335;28;20446;-46
2023/06/12 06:52:18;;;;;;;0.20;0.20;;;;;;;;;;5073711;28;20043;-48
2023/06/12 06:54:44;;;;;;;0.20;0.20;;;;;;;;;;5070706;28;20070;-46
2023/06/12 06:57:11;;;;;;;0.20;0.20;;;;;;;;;;5064293;28;20571;-44
2023/06/12 06:59:36;;;;;;;0.20;0.20;;;;;;;;;;5069983;28;20668;-48
2023/06/12 07:02:02;;;;;;;0.20;0.20;;;;;;;;;;5065444;28;20649;-47
2023/06/12 07:04:28;;;;;;;0.20;0.20;;;;;;;;;;5058859;28;20092;-49
2023/06/12 07:06:53;;;;;;;0.10;0.10;;;;;;;;;;5057335;28;20620;-49
2023/06/12 07:09:19;;;;;;;0.10;0.10;;;;;;;;;;5050476;28;20063;-48
2023/06/12 07:11:44;;;;;;;0.20;0.20;;;;;;;;;;5046719;28;20124;-48
2023/06/12 07:14:10;;;;;;;0.10;0.10;;;;;;;;;;5059411;28;20052;-50
2023/06/12 07:16:35;;;;;;;0.10;0.10;;;;;;;;;;5066086;28;20100;-48
2023/06/12 07:19:01;;;;;;;0.10;0.10;;;;;;;;;;5062544;28;20056;-52
2023/06/12 07:21:27;;;;;;;0.20;0.20;;;;;;;;;;5064800;28;20083;-48
2023/06/12 07:23:52;;;;;;;0.22;0.22;;;;;;;;;;5070177;28;20066;-47
2023/06/12 07:26:18;;;;;;;0.20;0.20;;;;;;;;;;5076350;28;20110;-50
2023/06/12 07:28:54;;;;;;;0.10;0.10;;;;;;;;;;5074687;28;20048;-48
2023/06/12 07:31:25;;;;;;;0.20;0.20;;;;;;;;;;5084162;28;20895;-49
2023/06/12 07:33:51;;;;;;;0.20;0.20;;;;;;;;;;5074419;28;20094;-48
2023/06/12 07:36:17;;;;;;;0.17;0.17;;;;;;;;;;5079664;28;20701;-51
2023/06/12 07:38:42;;;;;;;0.10;0.10;;;;;;;;;;5077720;28;20130;-48
2023/06/12 07:41:08;;;;;;;0.10;0.10;;;;;;;;;;5077998;28;20078;-49
2023/06/12 07:43:34;;;;;;;0.10;0.10;;;;;;;;;;5077690;28;20949;-49
2023/06/12 07:46:00;;;;;;;0.10;0.10;;;;;;;;;;5056575;28;20040;-48
2023/06/12 07:48:26;;;;;;;0.10;0.10;;;;;;;;;;5081571;28;20036;-48
2023/06/12 07:50:51;;;;;;;0.20;0.20;;;;;;;;;;5080636;28;20523;-49
2023/06/12 07:53:17;;;;;;;0.10;0.10;;;;;;;;;;5081023;28;20505;-49
2023/06/12 07:56:03;;;;;;;0.10;0.10;;;;;;;;;;5058182;28;20050;-48
2023/06/12 07:58:30;;;;;;;0.20;0.20;;;;;;;;;;5077561;28;20048;-48
2023/06/12 08:00:56;;;;;;;0.10;0.10;;;;;;;;;;5074189;28;20048;-48
2023/06/12 08:03:24;;;;;;;0.20;0.20;;;;;;;;;;5055437;28;20930;-48
2023/06/12 08:05:57;;;;;;;0.20;0.20;;;;;;;;;;5066663;28;20090;-51
2023/06/12 08:08:22;;;;;;;0.20;0.20;;;;;;;;;;5063182;28;20047;-48
2023/06/12 08:10:48;;;;;;;0.20;0.20;;;;;;;;;;5071241;28;20044;-51
2023/06/12 08:13:13;;;;;;;0.10;0.10;;;;;;;;;;5076205;28;20724;-48
2023/06/12 08:15:39;;;;;;;0.20;0.20;;;;;;;;;;5070983;28;20040;-49
2023/06/12 08:18:05;;;;;;;0.20;0.20;;;;;;;;;;5064550;28;21032;-50
2023/06/12 08:20:31;;;;;;;0.20;0.20;;;;;;;;;;5067916;28;20048;-47
2023/06/12 08:22:57;;;;;;;0.10;0.10;;;;;;;;;;5063651;28;20223;-47
2023/06/12 08:25:23;;;;;;;0.20;0.20;;;;;;;;;;5054993;28;20048;-53
2023/06/12 08:27:54;;;;;;;0.20;0.20;;;;;;;;;;5068707;28;20052;-51
2023/06/12 08:30:19;;;;;;;0.10;0.10;;;;;;;;;;5066921;28;20844;-51
2023/06/12 08:32:45;;;;;;;0.10;0.10;;;;;;;;;;5057811;28;20048;-49
2023/06/12 08:35:12;;;;;;;0.20;0.20;;;;;;;;;;5048068;28;20109;-51
2023/06/12 08:37:37;;;;;;;0.10;0.10;;;;;;;;;;5052859;28;20051;-48
2023/06/12 08:40:05;;;;;;;0.20;0.20;;;;;;;;;;5063058;28;20055;-48
2023/06/12 08:42:30;;;;;;;0.10;0.10;;;;;;;;;;5062311;28;20594;-50
2023/06/12 08:45:01;;;;;;;0.20;0.20;;;;;;;;;;5073307;28;21188;-47
2023/06/12 08:47:48;;;;;;;0.15;0.15;;;;;;;;;;5076054;28;20119;-49
2023/06/12 08:50:16;;;;;;;0.10;0.10;;;;;;;;;;5044570;28;22370;-48
2023/06/12 08:52:42;;;;;;;0.17;0.17;;;;;;;;;;5066570;28;20070;-48
2023/06/12 08:55:08;;;;;;;0.10;0.10;;;;;;;;;;5049182;28;20040;-49
2023/06/12 08:57:35;;;;;;;0.10;0.10;;;;;;;;;;5070200;28;20047;-47
2023/06/12 09:00:01;;;;;;;0.10;0.10;;;;;;;;;;5071369;28;20078;-48
2023/06/12 09:02:27;;;;;;;0.20;0.20;;;;;;;;;;5063498;28;20097;-49
2023/06/12 09:04:56;;;;;;;0.10;0.10;;;;;;;;;;5071399;28;21762;-49
2023/06/12 09:07:24;;;;;;;0.10;0.10;;;;;;;;;;5059589;28;20147;-49
2023/06/12 09:09:49;;;;;;;0.20;0.20;;;;;;;;;;5070389;28;20044;-51
2023/06/12 09:12:15;;;;;;;0.10;0.10;;;;;;;;;;5072119;28;20048;-47
2023/06/12 09:14:41;;;;;;;0.20;0.20;;;;;;;;;;5074836;28;20168;-52
2023/06/12 09:17:07;;;;;;;0.10;0.10;;;;;;;;;;5089704;28;20047;-52
2023/06/12 09:19:41;;;;;;;0.20;0.20;;;;;;;;;;5073337;28;20503;-48
2023/06/12 09:22:06;;;;;;;0.20;0.20;;;;;;;;;;5058484;28;20048;-49
2023/06/12 09:24:32;;;;;;;0.10;0.10;;;;;;;;;;5082298;28;20080;-49
2023/06/12 09:26:58;;;;;;;0.10;0.10;;;;;;;;;;5059593;28;20071;-48
2023/06/12 09:29:40;;;;;;;0.20;0.20;;;;;;;;;;5069329;28;20051;-48
2023/06/12 09:32:07;;;;;;;0.10;0.10;;;;;;;;;;5051343;28;20055;-48
2023/06/12 09:34:33;;;;;;;0.10;0.10;;;;;;;;;;5072065;28;20459;-51
2023/06/12 09:37:00;;;;;;;0.10;0.10;;;;;;;;;;5060592;28;20071;-49
2023/06/12 09:39:26;;;;;;;0.15;0.15;;;;;;;;;;5069524;28;20051;-52
2023/06/12 09:41:52;;;;;;;0.20;0.20;;;;;;;;;;5068432;28;20072;-51
2023/06/12 09:44:21;;;;;;;0.20;0.20;;;;;;;;;;5063480;28;20603;-47
2023/06/12 09:46:47;;;;;;;0.10;0.10;;;;;;;;;;5067938;28;20159;-47
2023/06/12 09:49:13;;;;;;;0.10;0.10;;;;;;;;;;5078133;28;20078;-49
2023/06/12 09:51:40;;;;;;;0.20;0.20;;;;;;;;;;5080038;28;20055;-47
2023/06/12 09:54:07;;;;;;;0.20;0.20;;;;;;;;;;5074423;28;20222;-47
2023/06/12 09:56:33;;;;;;;0.20;0.20;;;;;;;;;;5079967;28;20089;-46
2023/06/12 09:58:59;;;;;;;0.20;0.20;;;;;;;;;;5079311;28;20188;-53
2023/06/12 10:01:26;;;;;;;0.10;0.10;;;;;;;;;;5079927;28;20040;-48
2023/06/12 10:03:53;;;;;;;0.47;0.28;;;;;;;;;;5077760;28;20134;-46
2023/06/12 10:06:20;;;;;;;0.20;0.20;;;;;;;;;;5069640;28;20051;-47
2023/06/12 10:08:48;;;;;;;0.10;0.10;;;;;;;;;;5075546;28;20183;-47
2023/06/12 10:11:14;;;;;;;0.10;0.10;;;;;;;;;;5082012;28;20048;-47
2023/06/12 10:13:40;;;;;;;0.10;0.10;;;;;;;;;;5086061;28;20052;-46
2023/06/12 10:16:06;;;;;;;0.20;0.20;;;;;;;;;;5077486;28;20511;-48
2023/06/12 10:18:33;;;;;;;0.10;0.10;;;;;;;;;;5086986;28;20039;-48
2023/06/12 10:21:00;;;;;;;0.10;0.10;;;;;;;;;;5081655;28;20366;-47
2023/06/12 10:23:25;;;;;;;0.10;0.10;;;;;;;;;;5067752;28;20360;-49
2023/06/12 10:25:52;;;;;;;0.10;0.10;;;;;;;;;;5059244;28;20486;-47
2023/06/12 10:28:17;;;;;;;0.13;0.13;;;;;;;;;;5074675;28;20089;-47
2023/06/12 10:31:03;;;;;;;0.20;0.20;;;;;;;;;;5073215;28;20071;-47
2023/06/12 10:33:28;;;;;;;0.10;0.10;;;;;;;;;;5070813;28;20043;-48
2023/06/12 10:35:54;;;;;;;0.10;0.10;;;;;;;;;;5072834;28;20047;-46
2023/06/12 10:38:20;;;;;;;0.10;0.10;;;;;;;;;;5058668;28;20056;-49
2023/06/12 10:40:49;;;;;;;0.10;0.10;;;;;;;;;;5048748;28;20225;-51
2023/06/12 10:43:20;;;;;;;0.10;0.10;;;;;;;;;;5058435;28;20507;-47
2023/06/12 10:45:55;;;;;;;0.20;0.20;;;;;;;;;;5064553;28;20362;-49
2023/06/12 10:48:22;;;;;;;0.10;0.10;;;;;;;;;;5047901;28;20131;-47
2023/06/12 10:50:48;;;;;;;0.20;0.20;;;;;;;;;;5052663;28;20456;-48
2023/06/12 10:53:18;;;;;;;0.10;0.10;;;;;;;;;;5052939;28;20194;-48
2023/06/12 10:55:44;;;;;;;0.20;0.20;;;;;;;;;;5074169;28;20038;-46
2023/06/12 10:58:12;;;;;;;0.13;0.13;;;;;;;;;;5085611;28;20129;-48
2023/06/12 11:00:43;;;;;;;0.10;0.10;;;;;;;;;;5080901;28;20050;-49
2023/06/12 11:03:11;;;;;;;0.10;0.10;;;;;;;;;;5079252;28;20518;-50
2023/06/12 11:05:37;;;;;;;0.20;0.20;;;;;;;;;;5058497;28;20650;-49
2023/06/12 11:08:04;;;;;;;0.20;0.20;;;;;;;;;;5084120;28;20236;-47
2023/06/12 11:10:31;;;;;;;0.10;0.10;;;;;;;;;;5065489;28;20328;-57
2023/06/12 11:12:56;;;;;;;0.85;0.45;;;;;;;;;;5086885;28;20047;-49
2023/06/12 11:15:22;;;;;;;5.10;0.57;;;;;;;;;;5084049;28;20074;-48
2023/06/12 11:17:49;;;;;;;0.13;0.13;;;;;;;;;;5069154;28;20040;-49
2023/06/12 11:20:16;;;;;;;0.10;0.10;;;;;;;;;;5082393;28;20500;-49
2023/06/12 11:22:42;;;;;;;0.20;0.20;;;;;;;;;;5079713;28;20073;-51
2023/06/12 11:25:07;;;;;;;0.20;0.20;;;;;;;;;;5078524;28;20626;-49
2023/06/12 11:27:35;;;;;;;0.10;0.10;;;;;;;;;;5046611;28;20432;-48
2023/06/12 11:30:08;;;;;;;0.10;0.10;;;;;;;;;;5074601;28;20328;-48
2023/06/12 11:32:54;;;;;;;0.10;0.10;;;;;;;;;;5061830;28;20051;-48
2023/06/12 11:35:20;;;;;;;0.10;0.10;;;;;;;;;;5056473;28;20044;-47
2023/06/12 11:37:46;;;;;;;0.20;0.20;;;;;;;;;;5064922;28;20356;-48
2023/06/12 11:40:14;;;;;;;0.20;0.20;;;;;;;;;;5075318;28;20098;-47
2023/06/12 11:42:41;;;;;;;0.20;0.20;;;;;;;;;;5080659;28;20051;-47
2023/06/12 11:45:14;;;;;;;0.10;0.10;;;;;;;;;;5066226;28;20126;-51
2023/06/12 11:47:40;;;;;;;0.10;0.10;;;;;;;;;;5053776;28;20075;-52
2023/06/12 11:50:10;;;;;;;0.17;0.17;;;;;;;;;;5053145;28;20052;-49
2023/06/12 11:52:38;;;;;;;0.20;0.20;;;;;;;;;;5074290;28;20379;-56
2023/06/12 11:55:04;;;;;;;0.10;0.10;;;;;;;;;;5073700;28;20032;-49
2023/06/12 11:57:33;;;;;;;0.10;0.10;;;;;;;;;;5056517;28;21156;-49
2023/06/12 11:59:59;;;;;;;0.10;0.10;;;;;;;;;;5079818;28;20564;-52
2023/06/12 12:02:26;;;;;;;0.10;0.10;;;;;;;;;;5071725;28;20074;-49
2023/06/12 12:04:52;;;;;;;0.20;0.20;;;;;;;;;;5076915;28;20494;-50
2023/06/12 12:07:20;;;;;;;0.15;0.15;;;;;;;;;;5084978;28;20043;-48
2023/06/12 12:09:45;;;;;;;0.10;0.10;;;;;;;;;;5080551;28;20039;-49
2023/06/12 12:12:12;;;;;;;0.13;0.13;;;;;;;;;;5081026;28;20739;-52
2023/06/12 12:14:52;;;;;;;0.20;0.20;;;;;;;;;;5076829;28;20058;-51
2023/06/12 12:17:18;;;;;;;0.10;0.10;;;;;;;;;;5094249;28;20301;-48
2023/06/12 12:19:43;;;;;;;0.10;0.10;;;;;;;;;;5089482;28;20056;-52
2023/06/12 12:22:09;;;;;;;0.10;0.10;;;;;;;;;;5068189;28;20093;-50
2023/06/12 12:24:36;;;;;;;0.10;0.10;;;;;;;;;;5086149;28;20462;-49
2023/06/12 12:27:02;;;;;;;0.10;0.10;;;;;;;;;;5080109;28;20055;-48
2023/06/12 12:29:28;;;;;;;0.20;0.20;;;;;;;;;;5082373;28;20050;-50
2023/06/12 12:31:54;;;;;;;0.10;0.10;;;;;;;;;;5066750;28;20265;-47
2023/06/12 12:34:20;;;;;;;0.10;0.10;;;;;;;;;;5086016;28;20101;-51
2023/06/12 12:36:47;;;;;;;0.30;0.22;;;;;;;;;;5083492;28;20050;-50
2023/06/12 12:39:12;;;;;;;0.32;0.32;;;;;;;;;;5098304;28;20108;-51
2023/06/12 12:41:38;;;;;;;0.10;0.10;;;;;;;;;;5072592;28;20851;-51
2023/06/12 12:44:04;;;;;;;0.13;0.13;;;;;;;;;;5053592;28;20052;-50
2023/06/12 12:46:30;;;;;;;0.20;0.20;;;;;;;;;;5093307;28;20048;-51
2023/06/12 12:48:55;;;;;;;0.10;0.10;;;;;;;;;;5093561;28;20078;-49
2023/06/12 12:51:21;;;;;;;0.10;0.10;;;;;;;;;;5093302;28;20108;-48
2023/06/12 12:53:46;;;;;;;0.20;0.20;;;;;;;;;;5101687;28;20071;-48
2023/06/12 12:56:13;;;;;;;0.20;0.20;;;;;;;;;;5098561;28;20086;-52
2023/06/12 12:58:39;;;;;;;0.20;0.20;;;;;;;;;;5098213;28;20047;-48
2023/06/12 13:01:04;;;;;;;0.10;0.10;;;;;;;;;;5093726;28;20116;-49
2023/06/12 13:03:35;;;;;;;0.10;0.10;;;;;;;;;;5093608;28;20043;-49
2023/06/12 13:06:04;;;;;;;0.10;0.10;;;;;;;;;;5094657;28;20051;-50
2023/06/12 13:08:30;;;;;;;0.10;0.10;;;;;;;;;;5088314;27;20115;-48
2023/06/12 13:10:57;;;;;;;0.20;0.20;;;;;;;;;;5066735;28;20044;-49
2023/06/12 13:13:23;;;;;;;0.10;0.10;;;;;;;;;;5093145;28;20098;-49
2023/06/12 13:15:49;;;;;;;0.10;0.10;;;;;;;;;;5100420;28;20048;-51
2023/06/12 13:18:15;;;;;;;0.10;0.10;;;;;;;;;;5092663;28;20725;-49
2023/06/12 13:20:41;;;;;;;0.20;0.20;;;;;;;;;;5092377;28;20582;-50
2023/06/12 13:23:07;;;;;;;0.10;0.10;;;;;;;;;;5076574;28;20071;-51
2023/06/12 13:25:33;;;;;;;0.10;0.10;;;;;;;;;;5095649;28;20053;-49
2023/06/12 13:27:58;;;;;;;0.20;0.20;;;;;;;;;;5102464;28;20074;-49
2023/06/12 13:30:24;;;;;;;0.10;0.10;;;;;;;;;;5090700;28;20047;-52
2023/06/12 13:32:54;;;;;;;0.15;0.15;;;;;;;;;;5102236;28;20492;-48
2023/06/12 13:35:20;;;;;;;0.10;0.10;;;;;;;;;;5086476;28;20753;-48
2023/06/12 13:37:45;;;;;;;0.10;0.10;;;;;;;;;;5080628;28;20055;-50
2023/06/12 13:40:12;;;;;;;0.20;0.20;;;;;;;;;;5086976;28;20066;-51
2023/06/12 13:42:39;;;;;;;0.13;0.13;;;;;;;;;;5091743;28;20187;-48
2023/06/12 13:45:05;;;;;;;0.10;0.10;;;;;;;;;;5085693;28;20495;-48
2023/06/12 13:47:31;;;;;;;0.10;0.10;;;;;;;;;;5084301;28;20040;-48
2023/06/12 13:49:57;;;;;;;0.20;0.20;;;;;;;;;;5072915;28;20192;-48
2023/06/12 13:52:23;;;;;;;0.10;0.10;;;;;;;;;;5092168;28;20067;-50
2023/06/12 13:54:48;;;;;;;0.20;0.20;;;;;;;;;;5088685;28;20147;-49
2023/06/12 13:57:14;;;;;;;0.20;0.20;;;;;;;;;;5091326;28;20044;-48
2023/06/12 13:59:39;;;;;;;0.20;0.20;;;;;;;;;;5092078;28;20040;-49
2023/06/12 14:02:06;;;;;;;0.10;0.10;;;;;;;;;;5094111;28;20047;-47
2023/06/12 14:04:32;;;;;;;0.10;0.10;;;;;;;;;;5092718;28;20058;-48
2023/06/12 14:06:58;;;;;;;0.10;0.10;;;;;;;;;;5093094;28;20051;-47
2023/06/12 14:09:24;;;;;;;0.10;0.10;;;;;;;;;;5092507;28;20058;-49
2023/06/12 14:11:50;;;;;;;0.65;0.30;;;;;;;;;;5093376;28;20530;-49
2023/06/12 14:14:15;;;;;;;0.20;0.20;;;;;;;;;;5092540;28;20134;-48
2023/06/12 14:16:41;;;;;;;0.10;0.10;;;;;;;;;;5093357;28;20047;-47
2023/06/12 14:19:07;;;;;;;0.10;0.10;;;;;;;;;;5093129;28;20480;-48
2023/06/12 14:21:32;;;;;;;0.20;0.20;;;;;;;;;;5093051;28;20044;-48
2023/06/12 14:24:00;;;;;;;0.20;0.20;;;;;;;;;;5093374;28;20052;-47
2023/06/12 14:26:26;;;;;;;0.10;0.10;;;;;;;;;;5092236;28;20120;-45
2023/06/12 14:28:52;;;;;;;0.10;0.10;;;;;;;;;;5072514;28;20052;-47
2023/06/12 14:31:17;;;;;;;0.10;0.10;;;;;;;;;;5100457;28;20058;-46
2023/06/12 14:33:43;;;;;;;0.10;0.10;;;;;;;;;;5080045;28;20342;-46
2023/06/12 14:36:12;;;;;;;0.10;0.10;;;;;;;;;;5093510;28;20138;-46
2023/06/12 14:38:37;;;;;;;0.10;0.10;;;;;;;;;;5073103;28;20047;-46
2023/06/12 14:41:03;;;;;;;0.10;0.10;;;;;;;;;;5092045;28;20074;-53